sensor_id;sensor_type;location;lat;lon;timestamp;temperature;humidity
16781;DHT22;8507;50.056;8.248;2023-10-08T00:02:26;15.00;99.90
16781;DHT22;8507;50.056;8.248;2023-10-08T00:04:53;15.00;99.90
16781;DHT22;8507;50.056;8.248;2023-10-08T00:07:20;15.00;99.90
16781;DHT22;8507;50.056;8.248;2023-10-08T00:09:50;15.10;99.90
16781;DHT22;8507;50.056;8.248;2023-10-08T00:12:17;15.10;99.90
16781;DHT22;8507;50.056;8.248;2023-10-08T00:14:42;15.10;99.90
16781;DHT22;8507;50.056;8.248;2023-10-08T00:17:15;15.10;99.90
16781;DHT22;8507;50.056;8.248;2023-10-08T00:19:40;15.20;99.90
16781;DHT22;8507;50.056;8.248;2023-10-08T00:22:11;15.30;99.90
16781;DHT22;8507;50.056;8.248;2023-10-08T00:24:41;15.30;99.90
16781;DHT22;8507;50.056;8.248;2023-10-08T00:27:10;15.40;99.90
16781;DHT22;8507;50.056;8.248;2023-10-08T00:29:39;15.40;99.90
16781;DHT22;8507;50.056;8.248;2023-10-08T00:32:05;15.40;99.90
16781;DHT22;8507;50.056;8.248;2023-10-08T00:34:41;15.50;99.90
16781;DHT22;8507;50.056;8.248;2023-10-08T00:37:08;15.50;99.90
16781;DHT22;8507;50.056;8.248;2023-10-08T00:39:39;15.60;99.90
16781;DHT22;8507;50.056;8.248;2023-10-08T00:42:06;15.70;99.90
16781;DHT22;8507;50.056;8.248;2023-10-08T00:44:34;15.70;99.90
16781;DHT22;8507;50.056;8.248;2023-10-08T00:47:16;15.70;99.90
16781;DHT22;8507;50.056;8.248;2023-10-08T00:49:42;15.80;99.90
16781;DHT22;8507;50.056;8.248;2023-10-08T00:52:12;15.80;99.90
16781;DHT22;8507;50.056;8.248;2023-10-08T00:54:40;15.80;99.90
16781;DHT22;8507;50.056;8.248;2023-10-08T00:57:16;15.70;99.90
16781;DHT22;8507;50.056;8.248;2023-10-08T00:59:46;15.80;99.90
16781;DHT22;8507;50.056;8.248;2023-10-08T01:02:18;15.80;99.90
16781;DHT22;8507;50.056;8.248;2023-10-08T01:04:46;15.90;99.90
16781;DHT22;8507;50.056;8.248;2023-10-08T01:07:14;15.70;99.90
16781;DHT22;8507;50.056;8.248;2023-10-08T01:09:44;15.70;99.90
16781;DHT22;8507;50.056;8.248;2023-10-08T01:12:18;15.70;99.90
16781;DHT22;8507;50.056;8.248;2023-10-08T01:14:52;15.70;99.90
16781;DHT22;8507;50.056;8.248;2023-10-08T01:17:24;15.60;99.90
16781;DHT22;8507;50.056;8.248;2023-10-08T01:19:51;15.60;99.90
16781;DHT22;8507;50.056;8.248;2023-10-08T01:22:22;15.70;99.90
16781;DHT22;8507;50.056;8.248;2023-10-08T01:24:48;15.60;99.90
16781;DHT22;8507;50.056;8.248;2023-10-08T01:27:18;15.70;99.90
16781;DHT22;8507;50.056;8.248;2023-10-08T01:29:50;15.80;99.90
16781;DHT22;8507;50.056;8.248;2023-10-08T01:32:17;15.90;99.90
16781;DHT22;8507;50.056;8.248;2023-10-08T01:34:43;15.90;99.90
16781;DHT22;8507;50.056;8.248;2023-10-08T01:37:16;16.00;99.90
16781;DHT22;8507;50.056;8.248;2023-10-08T01:39:43;16.00;99.90
16781;DHT22;8507;50.056;8.248;2023-10-08T01:42:09;16.10;99.90
16781;DHT22;8507;50.056;8.248;2023-10-08T01:44:44;16.10;99.90
16781;DHT22;8507;50.056;8.248;2023-10-08T01:47:14;16.20;99.90
16781;DHT22;8507;50.056;8.248;2023-10-08T01:49:41;16.20;99.90
16781;DHT22;8507;50.056;8.248;2023-10-08T01:52:09;16.10;99.90
16781;DHT22;8507;50.056;8.248;2023-10-08T01:54:41;16.10;99.90
16781;DHT22;8507;50.056;8.248;2023-10-08T01:57:07;16.10;99.90
16781;DHT22;8507;50.056;8.248;2023-10-08T01:59:35;16.20;99.90
16781;DHT22;8507;50.056;8.248;2023-10-08T02:02:02;16.30;99.90
16781;DHT22;8507;50.056;8.248;2023-10-08T02:04:27;16.30;99.90
16781;DHT22;8507;50.056;8.248;2023-10-08T02:06:53;16.40;99.90
16781;DHT22;8507;50.056;8.248;2023-10-08T02:09:18;16.40;99.90
16781;DHT22;8507;50.056;8.248;2023-10-08T02:11:50;16.40;99.90
16781;DHT22;8507;50.056;8.248;2023-10-08T02:14:19;16.50;99.90
16781;DHT22;8507;50.056;8.248;2023-10-08T02:16:46;16.50;99.90
16781;DHT22;8507;50.056;8.248;2023-10-08T02:19:12;16.50;99.90
16781;DHT22;8507;50.056;8.248;2023-10-08T02:21:39;16.50;99.90
16781;DHT22;8507;50.056;8.248;2023-10-08T02:24:11;16.50;99.90
16781;DHT22;8507;50.056;8.248;2023-10-08T02:26:38;16.60;99.90
16781;DHT22;8507;50.056;8.248;2023-10-08T02:29:04;16.60;99.90
16781;DHT22;8507;50.056;8.248;2023-10-08T02:31:39;16.60;99.90
16781;DHT22;8507;50.056;8.248;2023-10-08T02:34:09;16.60;99.90
16781;DHT22;8507;50.056;8.248;2023-10-08T02:36:35;16.60;99.90
16781;DHT22;8507;50.056;8.248;2023-10-08T02:39:03;16.60;99.90
16781;DHT22;8507;50.056;8.248;2023-10-08T02:41:32;16.50;99.90
16781;DHT22;8507;50.056;8.248;2023-10-08T02:43:58;16.50;99.90
16781;DHT22;8507;50.056;8.248;2023-10-08T02:46:24;16.60;99.90
16781;DHT22;8507;50.056;8.248;2023-10-08T02:48:52;16.60;99.90
16781;DHT22;8507;50.056;8.248;2023-10-08T02:51:18;16.60;99.90
16781;DHT22;8507;50.056;8.248;2023-10-08T02:53:46;16.60;99.90
16781;DHT22;8507;50.056;8.248;2023-10-08T02:56:12;16.60;99.90
16781;DHT22;8507;50.056;8.248;2023-10-08T02:58:41;16.60;99.90
16781;DHT22;8507;50.056;8.248;2023-10-08T03:01:09;16.60;99.90
16781;DHT22;8507;50.056;8.248;2023-10-08T03:03:41;16.60;99.90
16781;DHT22;8507;50.056;8.248;2023-10-08T03:06:12;16.60;99.90
16781;DHT22;8507;50.056;8.248;2023-10-08T03:08:40;16.50;99.90
16781;DHT22;8507;50.056;8.248;2023-10-08T03:11:09;16.50;99.90
16781;DHT22;8507;50.056;8.248;2023-10-08T03:13:43;16.50;99.90
16781;DHT22;8507;50.056;8.248;2023-10-08T03:16:12;16.50;99.90
16781;DHT22;8507;50.056;8.248;2023-10-08T03:18:39;16.50;99.90
16781;DHT22;8507;50.056;8.248;2023-10-08T03:21:15;16.50;99.90
16781;DHT22;8507;50.056;8.248;2023-10-08T03:23:48;16.40;99.90
16781;DHT22;8507;50.056;8.248;2023-10-08T03:26:15;16.40;99.90
16781;DHT22;8507;50.056;8.248;2023-10-08T03:28:56;16.40;99.90
16781;DHT22;8507;50.056;8.248;2023-10-08T03:31:23;16.40;99.90
16781;DHT22;8507;50.056;8.248;2023-10-08T03:34:12;16.40;99.90
16781;DHT22;8507;50.056;8.248;2023-10-08T03:36:39;16.50;99.90
16781;DHT22;8507;50.056;8.248;2023-10-08T03:39:10;16.50;99.90
16781;DHT22;8507;50.056;8.248;2023-10-08T03:41:39;16.40;99.90
16781;DHT22;8507;50.056;8.248;2023-10-08T03:44:06;16.40;99.90
16781;DHT22;8507;50.056;8.248;2023-10-08T03:46:38;16.30;99.90
16781;DHT22;8507;50.056;8.248;2023-10-08T03:49:12;16.20;99.90
16781;DHT22;8507;50.056;8.248;2023-10-08T03:51:57;16.20;99.90
16781;DHT22;8507;50.056;8.248;2023-10-08T03:54:23;16.10;99.90
16781;DHT22;8507;50.056;8.248;2023-10-08T03:57:01;16.10;99.90
16781;DHT22;8507;50.056;8.248;2023-10-08T03:59:29;16.10;99.90
16781;DHT22;8507;50.056;8.248;2023-10-08T04:01:58;15.80;99.90
16781;DHT22;8507;50.056;8.248;2023-10-08T04:04:44;15.80;99.90
16781;DHT22;8507;50.056;8.248;2023-10-08T04:07:23;15.90;99.90
16781;DHT22;8507;50.056;8.248;2023-10-08T04:09:59;15.90;99.90
16781;DHT22;8507;50.056;8.248;2023-10-08T04:12:34;16.00;99.90
16781;DHT22;8507;50.056;8.248;2023-10-08T04:15:02;16.10;99.90
16781;DHT22;8507;50.056;8.248;2023-10-08T04:17:35;16.20;99.90
16781;DHT22;8507;50.056;8.248;2023-10-08T04:20:11;16.10;99.90
16781;DHT22;8507;50.056;8.248;2023-10-08T04:22:56;16.20;99.90
16781;DHT22;8507;50.056;8.248;2023-10-08T04:25:21;16.20;99.90
16781;DHT22;8507;50.056;8.248;2023-10-08T04:27:47;16.20;99.90
16781;DHT22;8507;50.056;8.248;2023-10-08T04:30:15;16.00;99.90
16781;DHT22;8507;50.056;8.248;2023-10-08T04:32:41;16.00;99.90
16781;DHT22;8507;50.056;8.248;2023-10-08T04:35:07;16.00;99.90
16781;DHT22;8507;50.056;8.248;2023-10-08T04:37:40;16.00;99.90
16781;DHT22;8507;50.056;8.248;2023-10-08T04:40:07;16.00;99.90
16781;DHT22;8507;50.056;8.248;2023-10-08T04:42:41;16.10;99.90
16781;DHT22;8507;50.056;8.248;2023-10-08T04:45:10;16.10;99.90
16781;DHT22;8507;50.056;8.248;2023-10-08T04:47:41;16.20;99.90
16781;DHT22;8507;50.056;8.248;2023-10-08T04:50:08;16.20;99.90
16781;DHT22;8507;50.056;8.248;2023-10-08T04:52:40;16.20;99.90
16781;DHT22;8507;50.056;8.248;2023-10-08T04:55:11;16.10;99.90
16781;DHT22;8507;50.056;8.248;2023-10-08T04:57:46;16.10;99.90
16781;DHT22;8507;50.056;8.248;2023-10-08T05:00:12;16.00;99.90
16781;DHT22;8507;50.056;8.248;2023-10-08T05:02:40;16.10;99.90
16781;DHT22;8507;50.056;8.248;2023-10-08T05:05:15;16.00;99.90
16781;DHT22;8507;50.056;8.248;2023-10-08T05:07:41;16.10;99.90
16781;DHT22;8507;50.056;8.248;2023-10-08T05:10:13;16.10;99.90
16781;DHT22;8507;50.056;8.248;2023-10-08T05:12:52;16.00;99.90
16781;DHT22;8507;50.056;8.248;2023-10-08T05:15:41;16.00;99.90
16781;DHT22;8507;50.056;8.248;2023-10-08T05:18:15;16.00;99.90
16781;DHT22;8507;50.056;8.248;2023-10-08T05:20:44;16.00;99.90
16781;DHT22;8507;50.056;8.248;2023-10-08T05:23:16;15.80;99.90
16781;DHT22;8507;50.056;8.248;2023-10-08T05:25:48;15.80;99.90
16781;DHT22;8507;50.056;8.248;2023-10-08T05:28:39;15.80;99.90
16781;DHT22;8507;50.056;8.248;2023-10-08T05:31:23;15.80;99.90
16781;DHT22;8507;50.056;8.248;2023-10-08T05:34:03;15.90;99.90
16781;DHT22;8507;50.056;8.248;2023-10-08T05:37:01;15.80;99.90
16781;DHT22;8507;50.056;8.248;2023-10-08T05:39:29;15.80;99.90
16781;DHT22;8507;50.056;8.248;2023-10-08T05:41:57;15.90;99.90
16781;DHT22;8507;50.056;8.248;2023-10-08T05:44:42;16.00;99.90
16781;DHT22;8507;50.056;8.248;2023-10-08T05:47:26;16.00;99.90
16781;DHT22;8507;50.056;8.248;2023-10-08T05:49:58;15.90;99.90
16781;DHT22;8507;50.056;8.248;2023-10-08T05:52:46;16.00;99.90
16781;DHT22;8507;50.056;8.248;2023-10-08T05:55:31;16.00;99.90
16781;DHT22;8507;50.056;8.248;2023-10-08T05:58:06;15.90;99.90
16781;DHT22;8507;50.056;8.248;2023-10-08T06:00:45;15.90;99.90
16781;DHT22;8507;50.056;8.248;2023-10-08T06:03:12;15.90;99.90
16781;DHT22;8507;50.056;8.248;2023-10-08T06:06:01;15.90;99.90
16781;DHT22;8507;50.056;8.248;2023-10-08T06:08:47;15.90;99.90
16781;DHT22;8507;50.056;8.248;2023-10-08T06:11:47;15.90;99.90
16781;DHT22;8507;50.056;8.248;2023-10-08T06:14:32;15.90;99.90
16781;DHT22;8507;50.056;8.248;2023-10-08T06:17:16;15.90;99.90
16781;DHT22;8507;50.056;8.248;2023-10-08T06:20:20;15.80;99.90
16781;DHT22;8507;50.056;8.248;2023-10-08T06:22:53;15.70;99.90
16781;DHT22;8507;50.056;8.248;2023-10-08T06:25:24;15.80;99.90
16781;DHT22;8507;50.056;8.248;2023-10-08T06:27:50;15.80;99.90
16781;DHT22;8507;50.056;8.248;2023-10-08T06:30:23;15.90;99.90
16781;DHT22;8507;50.056;8.248;2023-10-08T06:32:54;15.90;99.90
16781;DHT22;8507;50.056;8.248;2023-10-08T06:35:20;16.10;99.90
16781;DHT22;8507;50.056;8.248;2023-10-08T06:37:50;16.10;99.90
16781;DHT22;8507;50.056;8.248;2023-10-08T06:40:20;16.20;99.90
16781;DHT22;8507;50.056;8.248;2023-10-08T06:43:07;16.20;99.90
16781;DHT22;8507;50.056;8.248;2023-10-08T06:45:50;16.30;99.90
16781;DHT22;8507;50.056;8.248;2023-10-08T06:48:22;16.30;99.90
16781;DHT22;8507;50.056;8.248;2023-10-08T06:50:53;16.40;99.90
16781;DHT22;8507;50.056;8.248;2023-10-08T06:53:35;16.40;99.90
16781;DHT22;8507;50.056;8.248;2023-10-08T06:56:04;16.50;99.90
16781;DHT22;8507;50.056;8.248;2023-10-08T06:58:32;16.50;99.90
16781;DHT22;8507;50.056;8.248;2023-10-08T07:00:58;16.60;99.90
16781;DHT22;8507;50.056;8.248;2023-10-08T07:03:24;16.70;99.90
16781;DHT22;8507;50.056;8.248;2023-10-08T07:05:51;16.70;99.90
16781;DHT22;8507;50.056;8.248;2023-10-08T07:08:24;16.60;99.90
16781;DHT22;8507;50.056;8.248;2023-10-08T07:10:53;16.70;99.90
16781;DHT22;8507;50.056;8.248;2023-10-08T07:13:22;16.70;99.90
16781;DHT22;8507;50.056;8.248;2023-10-08T07:15:49;16.70;99.90
16781;DHT22;8507;50.056;8.248;2023-10-08T07:18:15;16.80;99.90
16781;DHT22;8507;50.056;8.248;2023-10-08T07:20:47;16.80;99.90
16781;DHT22;8507;50.056;8.248;2023-10-08T07:23:22;16.80;99.90
16781;DHT22;8507;50.056;8.248;2023-10-08T07:26:02;16.90;99.90
16781;DHT22;8507;50.056;8.248;2023-10-08T07:28:40;16.90;99.90
16781;DHT22;8507;50.056;8.248;2023-10-08T07:31:16;16.90;99.90
16781;DHT22;8507;50.056;8.248;2023-10-08T07:33:47;17.00;99.90
16781;DHT22;8507;50.056;8.248;2023-10-08T07:36:13;17.00;99.90
16781;DHT22;8507;50.056;8.248;2023-10-08T07:38:44;17.10;99.90
16781;DHT22;8507;50.056;8.248;2023-10-08T07:41:10;17.00;99.90
16781;DHT22;8507;50.056;8.248;2023-10-08T07:43:43;17.00;99.90
16781;DHT22;8507;50.056;8.248;2023-10-08T07:46:10;17.10;99.90
16781;DHT22;8507;50.056;8.248;2023-10-08T07:48:36;17.10;99.90
16781;DHT22;8507;50.056;8.248;2023-10-08T07:51:07;17.10;99.90
16781;DHT22;8507;50.056;8.248;2023-10-08T07:53:33;17.10;99.90
16781;DHT22;8507;50.056;8.248;2023-10-08T07:56:06;17.20;99.90
16781;DHT22;8507;50.056;8.248;2023-10-08T07:58:32;17.20;99.90
16781;DHT22;8507;50.056;8.248;2023-10-08T08:01:03;17.30;99.90
16781;DHT22;8507;50.056;8.248;2023-10-08T08:03:31;17.40;99.90
16781;DHT22;8507;50.056;8.248;2023-10-08T08:05:57;17.40;99.90
16781;DHT22;8507;50.056;8.248;2023-10-08T08:08:24;17.50;99.90
16781;DHT22;8507;50.056;8.248;2023-10-08T08:10:53;17.60;99.90
16781;DHT22;8507;50.056;8.248;2023-10-08T08:13:24;17.70;99.90
16781;DHT22;8507;50.056;8.248;2023-10-08T08:15:53;17.80;99.90
16781;DHT22;8507;50.056;8.248;2023-10-08T08:18:26;17.90;99.90
16781;DHT22;8507;50.056;8.248;2023-10-08T08:20:58;18.00;99.90
16781;DHT22;8507;50.056;8.248;2023-10-08T08:23:28;18.10;99.90
16781;DHT22;8507;50.056;8.248;2023-10-08T08:25:53;18.10;99.90
16781;DHT22;8507;50.056;8.248;2023-10-08T08:28:33;18.10;99.90
16781;DHT22;8507;50.056;8.248;2023-10-08T08:31:03;18.20;99.90
16781;DHT22;8507;50.056;8.248;2023-10-08T08:33:30;18.10;99.90
16781;DHT22;8507;50.056;8.248;2023-10-08T08:36:16;18.20;99.90
16781;DHT22;8507;50.056;8.248;2023-10-08T08:38:42;18.20;99.90
16781;DHT22;8507;50.056;8.248;2023-10-08T08:41:07;18.30;99.90
16781;DHT22;8507;50.056;8.248;2023-10-08T08:43:35;18.30;99.90
16781;DHT22;8507;50.056;8.248;2023-10-08T08:46:04;18.40;99.90
16781;DHT22;8507;50.056;8.248;2023-10-08T08:48:36;18.40;99.90
16781;DHT22;8507;50.056;8.248;2023-10-08T08:51:02;18.50;99.90
16781;DHT22;8507;50.056;8.248;2023-10-08T08:53:28;18.50;99.90
16781;DHT22;8507;50.056;8.248;2023-10-08T08:55:55;18.60;99.90
16781;DHT22;8507;50.056;8.248;2023-10-08T08:58:21;18.70;99.90
16781;DHT22;8507;50.056;8.248;2023-10-08T09:00:47;18.70;99.90
16781;DHT22;8507;50.056;8.248;2023-10-08T09:03:15;18.80;99.90
16781;DHT22;8507;50.056;8.248;2023-10-08T09:05:40;18.80;99.90
16781;DHT22;8507;50.056;8.248;2023-10-08T09:08:07;18.80;99.90
16781;DHT22;8507;50.056;8.248;2023-10-08T09:10:37;18.80;99.90
16781;DHT22;8507;50.056;8.248;2023-10-08T09:13:07;18.80;99.90
16781;DHT22;8507;50.056;8.248;2023-10-08T09:15:37;18.80;99.90
16781;DHT22;8507;50.056;8.248;2023-10-08T09:18:03;18.80;99.90
16781;DHT22;8507;50.056;8.248;2023-10-08T09:20:30;18.80;99.90
16781;DHT22;8507;50.056;8.248;2023-10-08T09:23:13;18.90;99.90
16781;DHT22;8507;50.056;8.248;2023-10-08T09:25:40;19.00;99.90
16781;DHT22;8507;50.056;8.248;2023-10-08T09:28:06;19.20;99.90
16781;DHT22;8507;50.056;8.248;2023-10-08T09:30:38;19.30;99.90
16781;DHT22;8507;50.056;8.248;2023-10-08T09:33:10;19.50;99.90
16781;DHT22;8507;50.056;8.248;2023-10-08T09:35:38;19.70;99.90
16781;DHT22;8507;50.056;8.248;2023-10-08T09:38:05;19.60;99.90
16781;DHT22;8507;50.056;8.248;2023-10-08T09:40:37;19.70;99.90
16781;DHT22;8507;50.056;8.248;2023-10-08T09:43:04;19.80;99.90
16781;DHT22;8507;50.056;8.248;2023-10-08T09:45:30;19.70;99.90
16781;DHT22;8507;50.056;8.248;2023-10-08T09:47:56;19.80;99.90
16781;DHT22;8507;50.056;8.248;2023-10-08T09:50:36;19.70;99.90
16781;DHT22;8507;50.056;8.248;2023-10-08T09:53:11;19.80;99.90
16781;DHT22;8507;50.056;8.248;2023-10-08T09:56:00;19.80;99.90
16781;DHT22;8507;50.056;8.248;2023-10-08T09:58:28;19.80;99.90
16781;DHT22;8507;50.056;8.248;2023-10-08T10:00:56;20.00;99.90
16781;DHT22;8507;50.056;8.248;2023-10-08T10:03:24;20.00;99.90
16781;DHT22;8507;50.056;8.248;2023-10-08T10:05:51;20.10;99.90
16781;DHT22;8507;50.056;8.248;2023-10-08T10:08:17;20.00;99.90
16781;DHT22;8507;50.056;8.248;2023-10-08T10:10:43;20.00;99.90
16781;DHT22;8507;50.056;8.248;2023-10-08T10:13:14;19.90;99.90
16781;DHT22;8507;50.056;8.248;2023-10-08T10:15:42;19.90;99.90
16781;DHT22;8507;50.056;8.248;2023-10-08T10:20:41;19.70;99.90
16781;DHT22;8507;50.056;8.248;2023-10-08T10:23:34;19.70;99.90
16781;DHT22;8507;50.056;8.248;2023-10-08T10:26:02;19.70;99.90
16781;DHT22;8507;50.056;8.248;2023-10-08T10:28:28;19.60;99.90
16781;DHT22;8507;50.056;8.248;2023-10-08T10:30:55;19.70;99.90
16781;DHT22;8507;50.056;8.248;2023-10-08T10:33:29;19.60;99.90
16781;DHT22;8507;50.056;8.248;2023-10-08T10:35:55;19.80;99.90
16781;DHT22;8507;50.056;8.248;2023-10-08T10:38:20;19.80;99.90
16781;DHT22;8507;50.056;8.248;2023-10-08T10:40:51;19.80;99.90
16781;DHT22;8507;50.056;8.248;2023-10-08T10:43:26;20.00;99.90
16781;DHT22;8507;50.056;8.248;2023-10-08T10:46:00;20.10;99.90
16781;DHT22;8507;50.056;8.248;2023-10-08T10:48:46;20.20;99.90
16781;DHT22;8507;50.056;8.248;2023-10-08T10:51:22;20.60;99.90
16781;DHT22;8507;50.056;8.248;2023-10-08T10:53:49;21.00;99.90
16781;DHT22;8507;50.056;8.248;2023-10-08T10:56:34;21.00;99.90
16781;DHT22;8507;50.056;8.248;2023-10-08T10:59:05;21.40;99.90
16781;DHT22;8507;50.056;8.248;2023-10-08T11:01:50;21.60;99.90
16781;DHT22;8507;50.056;8.248;2023-10-08T11:04:32;22.00;99.90
16781;DHT22;8507;50.056;8.248;2023-10-08T11:06:59;22.20;99.90
16781;DHT22;8507;50.056;8.248;2023-10-08T11:09:27;22.40;99.90
16781;DHT22;8507;50.056;8.248;2023-10-08T11:12:03;22.60;99.90
16781;DHT22;8507;50.056;8.248;2023-10-08T11:14:38;22.80;99.90
16781;DHT22;8507;50.056;8.248;2023-10-08T11:17:17;22.70;99.90
16781;DHT22;8507;50.056;8.248;2023-10-08T11:19:43;23.00;99.90
16781;DHT22;8507;50.056;8.248;2023-10-08T11:22:12;23.20;99.90
16781;DHT22;8507;50.056;8.248;2023-10-08T11:24:42;22.70;99.90
16781;DHT22;8507;50.056;8.248;2023-10-08T11:27:13;22.70;99.90
16781;DHT22;8507;50.056;8.248;2023-10-08T11:29:48;22.70;99.90
16781;DHT22;8507;50.056;8.248;2023-10-08T11:32:22;22.40;99.90
16781;DHT22;8507;50.056;8.248;2023-10-08T11:34:58;22.50;99.90
16781;DHT22;8507;50.056;8.248;2023-10-08T11:37:45;22.40;99.90
16781;DHT22;8507;50.056;8.248;2023-10-08T11:40:24;22.30;99.90
16781;DHT22;8507;50.056;8.248;2023-10-08T11:43:14;22.30;99.90
16781;DHT22;8507;50.056;8.248;2023-10-08T11:45:45;22.20;99.90
16781;DHT22;8507;50.056;8.248;2023-10-08T11:48:14;22.10;99.90
16781;DHT22;8507;50.056;8.248;2023-10-08T11:50:42;22.00;99.90
16781;DHT22;8507;50.056;8.248;2023-10-08T11:53:09;22.00;99.90
16781;DHT22;8507;50.056;8.248;2023-10-08T11:55:37;21.90;99.90
16781;DHT22;8507;50.056;8.248;2023-10-08T11:58:05;21.90;99.90
16781;DHT22;8507;50.056;8.248;2023-10-08T12:00:38;21.90;99.90
16781;DHT22;8507;50.056;8.248;2023-10-08T12:03:13;22.00;99.90
16781;DHT22;8507;50.056;8.248;2023-10-08T12:05:47;21.90;99.90
16781;DHT22;8507;50.056;8.248;2023-10-08T12:08:16;22.00;99.90
16781;DHT22;8507;50.056;8.248;2023-10-08T12:10:45;22.10;99.90
16781;DHT22;8507;50.056;8.248;2023-10-08T12:13:12;22.10;99.90
16781;DHT22;8507;50.056;8.248;2023-10-08T12:15:38;22.10;99.90
16781;DHT22;8507;50.056;8.248;2023-10-08T12:18:04;22.20;99.90
16781;DHT22;8507;50.056;8.248;2023-10-08T12:20:48;22.20;99.90
16781;DHT22;8507;50.056;8.248;2023-10-08T12:23:14;22.10;99.90
16781;DHT22;8507;50.056;8.248;2023-10-08T12:25:55;22.30;99.90
16781;DHT22;8507;50.056;8.248;2023-10-08T12:28:24;22.40;99.90
16781;DHT22;8507;50.056;8.248;2023-10-08T12:30:51;22.40;99.90
16781;DHT22;8507;50.056;8.248;2023-10-08T12:33:22;22.60;99.90
16781;DHT22;8507;50.056;8.248;2023-10-08T12:35:50;22.90;99.90
16781;DHT22;8507;50.056;8.248;2023-10-08T12:38:21;22.90;99.90
16781;DHT22;8507;50.056;8.248;2023-10-08T12:40:50;23.00;99.90
16781;DHT22;8507;50.056;8.248;2023-10-08T12:43:23;23.20;99.90
16781;DHT22;8507;50.056;8.248;2023-10-08T12:45:53;23.00;99.90
16781;DHT22;8507;50.056;8.248;2023-10-08T12:48:19;23.50;99.90
16781;DHT22;8507;50.056;8.248;2023-10-08T12:50:45;23.70;99.90
16781;DHT22;8507;50.056;8.248;2023-10-08T12:53:20;23.90;99.90
16781;DHT22;8507;50.056;8.248;2023-10-08T12:55:55;24.00;99.90
16781;DHT22;8507;50.056;8.248;2023-10-08T12:58:23;24.00;99.90
16781;DHT22;8507;50.056;8.248;2023-10-08T13:00:52;24.20;99.90
16781;DHT22;8507;50.056;8.248;2023-10-08T13:03:23;24.40;99.90
16781;DHT22;8507;50.056;8.248;2023-10-08T13:05:50;24.40;99.90
16781;DHT22;8507;50.056;8.248;2023-10-08T13:08:19;24.50;99.90
16781;DHT22;8507;50.056;8.248;2023-10-08T13:10:46;24.40;99.90
16781;DHT22;8507;50.056;8.248;2023-10-08T13:13:12;24.40;99.90
16781;DHT22;8507;50.056;8.248;2023-10-08T13:15:39;24.40;99.90
16781;DHT22;8507;50.056;8.248;2023-10-08T13:18:07;24.50;99.90
16781;DHT22;8507;50.056;8.248;2023-10-08T13:20:33;24.60;99.90
16781;DHT22;8507;50.056;8.248;2023-10-08T13:23:00;24.60;99.90
16781;DHT22;8507;50.056;8.248;2023-10-08T13:25:26;24.60;99.90
16781;DHT22;8507;50.056;8.248;2023-10-08T13:27:52;24.60;99.90
16781;DHT22;8507;50.056;8.248;2023-10-08T13:30:17;24.80;99.90
16781;DHT22;8507;50.056;8.248;2023-10-08T13:32:43;24.50;99.90
16781;DHT22;8507;50.056;8.248;2023-10-08T13:35:09;24.20;99.90
16781;DHT22;8507;50.056;8.248;2023-10-08T13:37:37;24.60;99.90
16781;DHT22;8507;50.056;8.248;2023-10-08T13:40:03;24.80;99.90
16781;DHT22;8507;50.056;8.248;2023-10-08T13:42:29;25.00;99.90
16781;DHT22;8507;50.056;8.248;2023-10-08T13:44:55;24.90;99.90
16781;DHT22;8507;50.056;8.248;2023-10-08T13:47:23;24.60;99.90
16781;DHT22;8507;50.056;8.248;2023-10-08T13:49:52;24.50;99.90
16781;DHT22;8507;50.056;8.248;2023-10-08T13:52:19;24.40;99.90
16781;DHT22;8507;50.056;8.248;2023-10-08T13:54:55;24.30;99.90
16781;DHT22;8507;50.056;8.248;2023-10-08T13:57:21;24.00;99.90
16781;DHT22;8507;50.056;8.248;2023-10-08T13:59:49;23.80;99.90
16781;DHT22;8507;50.056;8.248;2023-10-08T14:02:16;23.80;99.90
16781;DHT22;8507;50.056;8.248;2023-10-08T14:04:44;23.60;99.90
16781;DHT22;8507;50.056;8.248;2023-10-08T14:07:11;23.60;99.90
16781;DHT22;8507;50.056;8.248;2023-10-08T14:09:42;23.40;99.90
16781;DHT22;8507;50.056;8.248;2023-10-08T14:12:10;23.40;99.90
16781;DHT22;8507;50.056;8.248;2023-10-08T14:14:36;23.40;99.90
16781;DHT22;8507;50.056;8.248;2023-10-08T14:17:07;23.40;99.90
16781;DHT22;8507;50.056;8.248;2023-10-08T14:19:35;23.40;99.90
16781;DHT22;8507;50.056;8.248;2023-10-08T14:22:17;23.50;99.90
16781;DHT22;8507;50.056;8.248;2023-10-08T14:24:47;23.60;99.90
16781;DHT22;8507;50.056;8.248;2023-10-08T14:27:24;23.60;99.90
16781;DHT22;8507;50.056;8.248;2023-10-08T14:29:56;23.70;99.90
16781;DHT22;8507;50.056;8.248;2023-10-08T14:32:26;23.80;99.90
16781;DHT22;8507;50.056;8.248;2023-10-08T14:34:52;23.80;99.90
16781;DHT22;8507;50.056;8.248;2023-10-08T14:37:18;23.90;99.90
16781;DHT22;8507;50.056;8.248;2023-10-08T14:40:02;23.80;99.90
16781;DHT22;8507;50.056;8.248;2023-10-08T14:42:46;24.10;99.90
16781;DHT22;8507;50.056;8.248;2023-10-08T14:45:25;24.30;99.90
16781;DHT22;8507;50.056;8.248;2023-10-08T14:47:53;24.30;99.90
16781;DHT22;8507;50.056;8.248;2023-10-08T14:50:20;24.40;99.90
16781;DHT22;8507;50.056;8.248;2023-10-08T14:52:47;24.40;99.90
16781;DHT22;8507;50.056;8.248;2023-10-08T14:55:13;24.40;99.90
16781;DHT22;8507;50.056;8.248;2023-10-08T14:57:40;24.50;99.90
16781;DHT22;8507;50.056;8.248;2023-10-08T15:00:07;24.50;99.90
16781;DHT22;8507;50.056;8.248;2023-10-08T15:02:34;24.60;99.90
16781;DHT22;8507;50.056;8.248;2023-10-08T15:04:59;24.30;99.90
16781;DHT22;8507;50.056;8.248;2023-10-08T15:07:27;24.20;99.90
16781;DHT22;8507;50.056;8.248;2023-10-08T15:09:53;24.20;99.90
16781;DHT22;8507;50.056;8.248;2023-10-08T15:12:28;24.20;99.90
16781;DHT22;8507;50.056;8.248;2023-10-08T15:14:56;24.10;99.90
16781;DHT22;8507;50.056;8.248;2023-10-08T15:17:22;24.10;99.90
16781;DHT22;8507;50.056;8.248;2023-10-08T15:19:48;24.00;99.90
16781;DHT22;8507;50.056;8.248;2023-10-08T15:22:13;23.60;99.90
16781;DHT22;8507;50.056;8.248;2023-10-08T15:24:39;23.50;99.90
16781;DHT22;8507;50.056;8.248;2023-10-08T15:27:06;23.50;99.90
16781;DHT22;8507;50.056;8.248;2023-10-08T15:29:32;23.60;99.90
16781;DHT22;8507;50.056;8.248;2023-10-08T15:31:59;23.60;99.90
16781;DHT22;8507;50.056;8.248;2023-10-08T15:34:26;23.60;99.90
16781;DHT22;8507;50.056;8.248;2023-10-08T15:36:55;23.20;99.90
16781;DHT22;8507;50.056;8.248;2023-10-08T15:39:21;22.90;99.90
16781;DHT22;8507;50.056;8.248;2023-10-08T15:41:50;22.90;99.90
16781;DHT22;8507;50.056;8.248;2023-10-08T15:44:19;22.90;99.90
16781;DHT22;8507;50.056;8.248;2023-10-08T15:46:48;22.90;99.90
16781;DHT22;8507;50.056;8.248;2023-10-08T15:49:14;22.90;99.90
16781;DHT22;8507;50.056;8.248;2023-10-08T15:51:39;22.70;99.90
16781;DHT22;8507;50.056;8.248;2023-10-08T15:54:07;22.50;99.90
16781;DHT22;8507;50.056;8.248;2023-10-08T15:56:33;22.50;99.90
16781;DHT22;8507;50.056;8.248;2023-10-08T15:59:00;22.40;99.90
16781;DHT22;8507;50.056;8.248;2023-10-08T16:01:26;22.20;99.90
16781;DHT22;8507;50.056;8.248;2023-10-08T16:03:51;22.00;99.90
16781;DHT22;8507;50.056;8.248;2023-10-08T16:06:18;21.90;99.90
16781;DHT22;8507;50.056;8.248;2023-10-08T16:08:44;21.80;99.90
16781;DHT22;8507;50.056;8.248;2023-10-08T16:11:10;21.60;99.90